sensor_id;sensor_type;location;lat;lon;timestamp;pressure;altitude;pressure_sealevel;temperature;humidity
41062;BME280;26812;42.662;23.352;2023-09-19T00:01:39;95298.03;;;18.39;60.29
41062;BME280;26812;42.662;23.352;2023-09-19T00:04:07;95304.22;;;18.55;59.69
41062;BME280;26812;42.662;23.352;2023-09-19T00:06:40;95294.59;;;18.42;59.81
41062;BME280;26812;42.662;23.352;2023-09-19T00:09:05;95316.72;;;18.56;59.71
41062;BME280;26812;42.662;23.352;2023-09-19T00:11:36;95296.19;;;18.43;59.57
41062;BME280;26812;42.662;23.352;2023-09-19T00:14:01;95313.72;;;18.26;60.59
41062;BME280;26812;42.662;23.352;2023-09-19T00:16:27;95262.41;;;18.12;60.46
41062;BME280;26812;42.662;23.352;2023-09-19T00:18:53;95286.91;;;18.47;59.75
41062;BME280;26812;42.662;23.352;2023-09-19T00:21:18;95302.94;;;18.49;60.31
41062;BME280;26812;42.662;23.352;2023-09-19T00:23:47;95276.13;;;18.35;60.10
41062;BME280;26812;42.662;23.352;2023-09-19T00:26:12;95291.69;;;18.15;61.22
41062;BME280;26812;42.662;23.352;2023-09-19T00:28:38;95288.44;;;18.10;61.47
41062;BME280;26812;42.662;23.352;2023-09-19T00:31:04;95290.69;;;18.23;61.00
41062;BME280;26812;42.662;23.352;2023-09-19T00:33:33;95293.13;;;17.46;63.83
41062;BME280;26812;42.662;23.352;2023-09-19T00:35:59;95292.16;;;17.54;63.76
41062;BME280;26812;42.662;23.352;2023-09-19T00:38:27;95297.75;;;17.30;64.73
41062;BME280;26812;42.662;23.352;2023-09-19T00:40:53;95289.91;;;17.13;65.48
41062;BME280;26812;42.662;23.352;2023-09-19T00:43:20;95274.91;;;17.34;64.74
41062;BME280;26812;42.662;23.352;2023-09-19T00:45:51;95259.75;;;17.49;64.21
41062;BME280;26812;42.662;23.352;2023-09-19T00:48:16;95271.41;;;17.65;63.55
41062;BME280;26812;42.662;23.352;2023-09-19T00:50:50;95252.88;;;17.39;64.03
41062;BME280;26812;42.662;23.352;2023-09-19T00:53:20;95268.78;;;17.53;64.31
41062;BME280;26812;42.662;23.352;2023-09-19T00:55:46;95280.69;;;17.77;63.72
41062;BME280;26812;42.662;23.352;2023-09-19T00:58:12;95281.13;;;17.79;63.64
41062;BME280;26812;42.662;23.352;2023-09-19T01:00:37;95284.06;;;17.89;63.25
41062;BME280;26812;42.662;23.352;2023-09-19T01:03:04;95279.34;;;17.86;63.41
41062;BME280;26812;42.662;23.352;2023-09-19T01:05:33;95283.56;;;17.68;63.69
41062;BME280;26812;42.662;23.352;2023-09-19T01:07:59;95252.78;;;17.52;64.36
41062;BME280;26812;42.662;23.352;2023-09-19T01:10:25;95279.50;;;17.46;64.52
41062;BME280;26812;42.662;23.352;2023-09-19T01:16:16;95270.88;;;17.28;65.30
41062;BME280;26812;42.662;23.352;2023-09-19T01:20:04;95280.91;;;17.40;65.15
41062;BME280;26812;42.662;23.352;2023-09-19T01:22:12;95279.75;;;17.25;66.04
41062;BME280;26812;42.662;23.352;2023-09-19T01:25:20;95283.72;;;17.75;64.22
41062;BME280;26812;42.662;23.352;2023-09-19T01:30:44;95280.03;;;17.52;65.25
41062;BME280;26812;42.662;23.352;2023-09-19T01:33:15;95291.75;;;17.84;64.53
41062;BME280;26812;42.662;23.352;2023-09-19T01:35:43;95276.84;;;17.65;64.70
41062;BME280;26812;42.662;23.352;2023-09-19T01:38:11;95271.31;;;17.62;64.94
41062;BME280;26812;42.662;23.352;2023-09-19T01:40:44;95257.72;;;17.46;65.29
41062;BME280;26812;42.662;23.352;2023-09-19T01:51:11;95262.78;;;17.63;65.59
41062;BME280;26812;42.662;23.352;2023-09-19T01:54:03;95265.63;;;17.51;65.84
41062;BME280;26812;42.662;23.352;2023-09-19T01:57:07;95270.97;;;17.63;65.40
41062;BME280;26812;42.662;23.352;2023-09-19T01:59:43;95267.66;;;17.54;65.67
41062;BME280;26812;42.662;23.352;2023-09-19T02:02:12;95276.25;;;17.56;65.46
41062;BME280;26812;42.662;23.352;2023-09-19T02:04:49;95285.84;;;17.82;64.69
41062;BME280;26812;42.662;23.352;2023-09-19T02:07:16;95287.91;;;18.04;64.31
41062;BME280;26812;42.662;23.352;2023-09-19T02:09:41;95295.84;;;17.93;64.77
41062;BME280;26812;42.662;23.352;2023-09-19T02:12:09;95285.66;;;17.75;65.05
41062;BME280;26812;42.662;23.352;2023-09-19T02:14:34;95278.63;;;17.74;65.09
41062;BME280;26812;42.662;23.352;2023-09-19T02:17:02;95282.13;;;17.90;64.57
41062;BME280;26812;42.662;23.352;2023-09-19T02:19:28;95281.88;;;17.95;64.49
41062;BME280;26812;42.662;23.352;2023-09-19T02:21:55;95290.03;;;17.63;65.77
41062;BME280;26812;42.662;23.352;2023-09-19T02:24:20;95283.81;;;17.47;66.00
41062;BME280;26812;42.662;23.352;2023-09-19T02:26:46;95277.94;;;17.45;65.87
41062;BME280;26812;42.662;23.352;2023-09-19T02:29:12;95272.19;;;17.66;65.06
41062;BME280;26812;42.662;23.352;2023-09-19T02:31:38;95264.56;;;17.40;65.82
41062;BME280;26812;42.662;23.352;2023-09-19T02:34:04;95243.75;;;17.32;66.00
41062;BME280;26812;42.662;23.352;2023-09-19T02:36:31;95253.22;;;17.38;65.88
41062;BME280;26812;42.662;23.352;2023-09-19T02:38:57;95272.31;;;17.69;64.90
41062;BME280;26812;42.662;23.352;2023-09-19T02:41:22;95258.69;;;17.69;64.66
41062;BME280;26812;42.662;23.352;2023-09-19T02:43:48;95260.19;;;17.67;64.88
41062;BME280;26812;42.662;23.352;2023-09-19T02:46:13;95230.09;;;17.63;64.53
41062;BME280;26812;42.662;23.352;2023-09-19T02:48:39;95241.53;;;17.53;64.96
41062;BME280;26812;42.662;23.352;2023-09-19T02:51:04;95250.31;;;17.62;64.93
41062;BME280;26812;42.662;23.352;2023-09-19T02:53:30;95242.78;;;17.24;65.78
41062;BME280;26812;42.662;23.352;2023-09-19T02:55:57;95232.47;;;16.86;67.45
41062;BME280;26812;42.662;23.352;2023-09-19T02:58:22;95240.91;;;16.97;67.21
41062;BME280;26812;42.662;23.352;2023-09-19T03:00:48;95245.38;;;17.05;67.18
41062;BME280;26812;42.662;23.352;2023-09-19T03:03:15;95245.47;;;17.08;67.11
41062;BME280;26812;42.662;23.352;2023-09-19T03:05:41;95239.94;;;17.05;67.58
41062;BME280;26812;42.662;23.352;2023-09-19T03:08:13;95251.69;;;16.93;67.51
41062;BME280;26812;42.662;23.352;2023-09-19T03:10:40;95240.66;;;17.02;67.65
41062;BME280;26812;42.662;23.352;2023-09-19T03:13:06;95242.22;;;17.03;67.55
41062;BME280;26812;42.662;23.352;2023-09-19T03:15:40;95221.28;;;16.75;67.89
41062;BME280;26812;42.662;23.352;2023-09-19T03:18:06;95232.16;;;16.75;68.50
41062;BME280;26812;42.662;23.352;2023-09-19T03:20:31;95234.75;;;17.00;67.80
41062;BME280;26812;42.662;23.352;2023-09-19T03:22:57;95219.66;;;17.02;67.82
41062;BME280;26812;42.662;23.352;2023-09-19T03:25:25;95225.03;;;17.15;67.32
41062;BME280;26812;42.662;23.352;2023-09-19T03:27:50;95217.66;;;17.31;66.71
41062;BME280;26812;42.662;23.352;2023-09-19T03:30:16;95228.91;;;17.29;67.12
41062;BME280;26812;42.662;23.352;2023-09-19T03:32:48;95239.31;;;17.12;67.14
41062;BME280;26812;42.662;23.352;2023-09-19T03:35:15;95224.56;;;16.97;67.68
41062;BME280;26812;42.662;23.352;2023-09-19T03:37:41;95240.69;;;16.74;69.13
41062;BME280;26812;42.662;23.352;2023-09-19T03:40:08;95225.81;;;16.84;68.59
41062;BME280;26812;42.662;23.352;2023-09-19T03:42:38;95218.22;;;16.77;68.54
41062;BME280;26812;42.662;23.352;2023-09-19T03:45:03;95228.03;;;16.66;69.41
41062;BME280;26812;42.662;23.352;2023-09-19T03:47:29;95236.25;;;16.97;68.67
41062;BME280;26812;42.662;23.352;2023-09-19T03:49:55;95218.25;;;16.65;68.88
41062;BME280;26812;42.662;23.352;2023-09-19T03:52:21;95232.03;;;16.84;68.83
41062;BME280;26812;42.662;23.352;2023-09-19T03:54:46;95249.44;;;16.67;69.93
41062;BME280;26812;42.662;23.352;2023-09-19T03:57:20;95236.91;;;16.79;69.46
41062;BME280;26812;42.662;23.352;2023-09-19T03:59:46;95237.66;;;16.91;68.72
41062;BME280;26812;42.662;23.352;2023-09-19T04:02:13;95250.13;;;17.08;67.91
41062;BME280;26812;42.662;23.352;2023-09-19T04:04:50;95249.41;;;16.95;68.97
41062;BME280;26812;42.662;23.352;2023-09-19T04:07:17;95255.81;;;16.59;70.36
41062;BME280;26812;42.662;23.352;2023-09-19T04:09:42;95248.63;;;16.95;68.84
41062;BME280;26812;42.662;23.352;2023-09-19T04:12:08;95257.53;;;16.80;69.08
41062;BME280;26812;42.662;23.352;2023-09-19T04:14:37;95261.03;;;16.52;70.58
41062;BME280;26812;42.662;23.352;2023-09-19T04:17:03;95269.44;;;16.87;69.48
41062;BME280;26812;42.662;23.352;2023-09-19T04:19:30;95257.03;;;16.62;69.83
41062;BME280;26812;42.662;23.352;2023-09-19T04:21:55;95270.72;;;16.37;71.08
41062;BME280;26812;42.662;23.352;2023-09-19T04:24:21;95267.72;;;16.14;72.17
41062;BME280;26812;42.662;23.352;2023-09-19T04:26:46;95255.47;;;16.21;72.35
41062;BME280;26812;42.662;23.352;2023-09-19T04:29:12;95257.56;;;16.39;71.95
41062;BME280;26812;42.662;23.352;2023-09-19T04:31:39;95257.13;;;16.37;71.91
41062;BME280;26812;42.662;23.352;2023-09-19T04:34:05;95260.69;;;16.82;70.07
41062;BME280;26812;42.662;23.352;2023-09-19T04:36:31;95251.06;;;16.56;70.48
41062;BME280;26812;42.662;23.352;2023-09-19T04:38:56;95262.81;;;16.32;72.00
41062;BME280;26812;42.662;23.352;2023-09-19T04:41:21;95249.25;;;16.48;71.51
41062;BME280;26812;42.662;23.352;2023-09-19T04:43:47;95265.16;;;16.74;70.81
41062;BME280;26812;42.662;23.352;2023-09-19T04:46:14;95255.31;;;16.69;71.18
41062;BME280;26812;42.662;23.352;2023-09-19T04:48:40;95231.69;;;16.58;70.84
41062;BME280;26812;42.662;23.352;2023-09-19T04:51:06;95257.78;;;17.02;69.59
41062;BME280;26812;42.662;23.352;2023-09-19T04:53:40;95251.97;;;16.88;69.62
41062;BME280;26812;42.662;23.352;2023-09-19T04:56:06;95244.78;;;17.12;68.35
41062;BME280;26812;42.662;23.352;2023-09-19T04:58:33;95244.16;;;16.87;69.49
41062;BME280;26812;42.662;23.352;2023-09-19T05:00:59;95244.50;;;17.01;68.94
41062;BME280;26812;42.662;23.352;2023-09-19T05:03:24;95247.25;;;17.17;68.14
41062;BME280;26812;42.662;23.352;2023-09-19T05:05:50;95230.47;;;16.99;68.29
41062;BME280;26812;42.662;23.352;2023-09-19T05:08:15;95234.78;;;17.16;67.62
41062;BME280;26812;42.662;23.352;2023-09-19T05:10:41;95216.38;;;16.81;68.22
41062;BME280;26812;42.662;23.352;2023-09-19T05:13:06;95225.09;;;17.02;67.78
41062;BME280;26812;42.662;23.352;2023-09-19T05:15:33;95243.75;;;17.32;67.37
41062;BME280;26812;42.662;23.352;2023-09-19T05:17:58;95250.22;;;17.43;66.56
41062;BME280;26812;42.662;23.352;2023-09-19T05:20:24;95246.19;;;17.37;66.86
41062;BME280;26812;42.662;23.352;2023-09-19T05:23:12;95250.84;;;17.36;67.67
41062;BME280;26812;42.662;23.352;2023-09-19T05:25:39;95238.19;;;17.60;66.71
41062;BME280;26812;42.662;23.352;2023-09-19T05:28:09;95229.59;;;17.74;65.78
41062;BME280;26812;42.662;23.352;2023-09-19T05:30:36;95244.63;;;17.83;65.98
41062;BME280;26812;42.662;23.352;2023-09-19T05:33:02;95232.56;;;18.19;64.87
41062;BME280;26812;42.662;23.352;2023-09-19T05:35:29;95229.69;;;18.51;63.42
41062;BME280;26812;42.662;23.352;2023-09-19T05:37:54;95221.88;;;18.49;62.76
41062;BME280;26812;42.662;23.352;2023-09-19T05:40:21;95229.78;;;18.74;62.07
41062;BME280;26812;42.662;23.352;2023-09-19T05:42:47;95235.94;;;18.90;61.84
41062;BME280;26812;42.662;23.352;2023-09-19T05:45:13;95222.78;;;18.96;61.54
41062;BME280;26812;42.662;23.352;2023-09-19T05:47:40;95233.84;;;19.03;61.58
41062;BME280;26812;42.662;23.352;2023-09-19T05:50:06;95227.53;;;18.60;62.20
41062;BME280;26812;42.662;23.352;2023-09-19T05:52:34;95230.66;;;18.78;61.83
41062;BME280;26812;42.662;23.352;2023-09-19T05:54:59;95214.88;;;18.90;61.16
41062;BME280;26812;42.662;23.352;2023-09-19T05:57:25;95218.81;;;18.93;61.55
41062;BME280;26812;42.662;23.352;2023-09-19T05:59:50;95220.03;;;18.96;61.39
41062;BME280;26812;42.662;23.352;2023-09-19T06:02:16;95224.81;;;18.99;60.83
41062;BME280;26812;42.662;23.352;2023-09-19T06:04:41;95223.94;;;19.17;60.14
41062;BME280;26812;42.662;23.352;2023-09-19T06:07:15;95218.50;;;19.17;60.48
41062;BME280;26812;42.662;23.352;2023-09-19T06:09:41;95222.69;;;19.34;60.10
41062;BME280;26812;42.662;23.352;2023-09-19T06:12:07;95207.53;;;19.60;59.21
41062;BME280;26812;42.662;23.352;2023-09-19T06:14:32;95208.56;;;19.78;58.39
41062;BME280;26812;42.662;23.352;2023-09-19T06:16:58;95209.09;;;19.61;58.66
41062;BME280;26812;42.662;23.352;2023-09-19T06:19:23;95210.97;;;19.57;58.42
41062;BME280;26812;42.662;23.352;2023-09-19T06:21:52;95211.16;;;19.67;58.71
41062;BME280;26812;42.662;23.352;2023-09-19T06:24:19;95204.09;;;19.93;58.03
41062;BME280;26812;42.662;23.352;2023-09-19T06:26:45;95203.56;;;19.83;57.95
41062;BME280;26812;42.662;23.352;2023-09-19T06:29:10;95216.06;;;20.11;57.39
41062;BME280;26812;42.662;23.352;2023-09-19T06:31:39;95214.78;;;20.31;57.15
41062;BME280;26812;42.662;23.352;2023-09-19T06:34:04;95217.28;;;20.43;55.98
41062;BME280;26812;42.662;23.352;2023-09-19T06:36:29;95183.66;;;20.13;56.03
41062;BME280;26812;42.662;23.352;2023-09-19T06:38:55;95204.25;;;20.33;56.45
41062;BME280;26812;42.662;23.352;2023-09-19T06:41:20;95209.09;;;20.43;56.33
41062;BME280;26812;42.662;23.352;2023-09-19T06:43:50;95211.84;;;20.81;55.20
41062;BME280;26812;42.662;23.352;2023-09-19T06:46:17;95202.06;;;20.80;54.26
41062;BME280;26812;42.662;23.352;2023-09-19T06:48:43;95215.84;;;20.87;54.35
41062;BME280;26812;42.662;23.352;2023-09-19T06:51:09;95225.44;;;21.07;53.80
41062;BME280;26812;42.662;23.352;2023-09-19T06:53:35;95216.66;;;21.24;53.47
41062;BME280;26812;42.662;23.352;2023-09-19T06:56:02;95217.50;;;21.32;52.63
41062;BME280;26812;42.662;23.352;2023-09-19T06:58:27;95216.03;;;21.04;53.99
41062;BME280;26812;42.662;23.352;2023-09-19T07:00:53;95214.63;;;21.21;53.44
41062;BME280;26812;42.662;23.352;2023-09-19T07:03:19;95210.50;;;21.01;53.82
41062;BME280;26812;42.662;23.352;2023-09-19T07:05:48;95215.00;;;21.16;53.55
41062;BME280;26812;42.662;23.352;2023-09-19T07:08:13;95231.38;;;21.13;53.96
41062;BME280;26812;42.662;23.352;2023-09-19T07:10:40;95243.13;;;21.13;53.90
41062;BME280;26812;42.662;23.352;2023-09-19T07:13:07;95217.44;;;20.88;54.03
41062;BME280;26812;42.662;23.352;2023-09-19T07:15:36;95225.94;;;20.79;54.35
41062;BME280;26812;42.662;23.352;2023-09-19T07:18:05;95229.72;;;20.67;54.49
41062;BME280;26812;42.662;23.352;2023-09-19T07:20:32;95233.16;;;20.61;54.35
41062;BME280;26812;42.662;23.352;2023-09-19T07:22:59;95228.81;;;20.56;55.23
41062;BME280;26812;42.662;23.352;2023-09-19T07:25:26;95222.41;;;20.45;54.63
41062;BME280;26812;42.662;23.352;2023-09-19T07:27:51;95222.78;;;20.43;55.42
41062;BME280;26812;42.662;23.352;2023-09-19T07:30:17;95224.31;;;20.14;56.75
41062;BME280;26812;42.662;23.352;2023-09-19T07:32:42;95211.44;;;20.15;57.31
41062;BME280;26812;42.662;23.352;2023-09-19T07:35:08;95210.06;;;20.28;56.86
41062;BME280;26812;42.662;23.352;2023-09-19T07:37:34;95205.41;;;20.32;56.42
41062;BME280;26812;42.662;23.352;2023-09-19T07:40:00;95222.00;;;20.76;55.64
41062;BME280;26812;42.662;23.352;2023-09-19T07:42:41;95199.25;;;20.72;55.28
41062;BME280;26812;42.662;23.352;2023-09-19T07:45:08;95229.94;;;20.85;55.44
41062;BME280;26812;42.662;23.352;2023-09-19T07:47:34;95221.09;;;20.65;55.18
41062;BME280;26812;42.662;23.352;2023-09-19T07:50:01;95217.88;;;20.56;54.91
41062;BME280;26812;42.662;23.352;2023-09-19T07:52:28;95231.38;;;20.75;55.01
41062;BME280;26812;42.662;23.352;2023-09-19T07:54:54;95234.34;;;20.97;54.51
41062;BME280;26812;42.662;23.352;2023-09-19T07:57:26;95231.19;;;20.95;54.08
41062;BME280;26812;42.662;23.352;2023-09-19T07:59:53;95237.97;;;21.08;54.14
41062;BME280;26812;42.662;23.352;2023-09-19T08:02:19;95229.44;;;21.13;53.34
41062;BME280;26812;42.662;23.352;2023-09-19T08:04:45;95239.09;;;21.03;54.37
41062;BME280;26812;42.662;23.352;2023-09-19T08:07:14;95235.56;;;21.40;53.76
41062;BME280;26812;42.662;23.352;2023-09-19T08:09:40;95234.94;;;21.54;52.88
41062;BME280;26812;42.662;23.352;2023-09-19T08:12:06;95215.94;;;21.82;51.90
41062;BME280;26812;42.662;23.352;2023-09-19T08:14:35;95212.41;;;21.78;51.78
41062;BME280;26812;42.662;23.352;2023-09-19T08:17:01;95215.84;;;21.72;51.66
41062;BME280;26812;42.662;23.352;2023-09-19T08:19:26;95200.63;;;20.89;54.03
41062;BME280;26812;42.662;23.352;2023-09-19T08:21:56;95214.91;;;21.09;54.07
41062;BME280;26812;42.662;23.352;2023-09-19T08:24:28;95210.16;;;21.06;55.09
41062;BME280;26812;42.662;23.352;2023-09-19T08:26:57;95206.38;;;21.58;53.17
41062;BME280;26812;42.662;23.352;2023-09-19T08:29:25;95200.88;;;21.58;53.27
41062;BME280;26812;42.662;23.352;2023-09-19T08:31:54;95198.19;;;21.65;52.57
41062;BME280;26812;42.662;23.352;2023-09-19T08:34:19;95201.72;;;21.66;52.57
41062;BME280;26812;42.662;23.352;2023-09-19T08:36:46;95186.22;;;21.91;52.03
41062;BME280;26812;42.662;23.352;2023-09-19T08:39:13;95207.75;;;21.86;51.56
41062;BME280;26812;42.662;23.352;2023-09-19T08:41:39;95201.72;;;21.22;53.62
41062;BME280;26812;42.662;23.352;2023-09-19T08:44:05;95188.53;;;20.94;54.65
41062;BME280;26812;42.662;23.352;2023-09-19T08:46:31;95191.81;;;21.10;54.49
41062;BME280;26812;42.662;23.352;2023-09-19T08:49:04;95206.78;;;21.60;54.42
41062;BME280;26812;42.662;23.352;2023-09-19T08:51:43;95198.81;;;21.99;52.68
41062;BME280;26812;42.662;23.352;2023-09-19T08:54:20;95193.50;;;22.24;50.97
41062;BME280;26812;42.662;23.352;2023-09-19T08:56:48;95186.13;;;22.43;50.74
41062;BME280;26812;42.662;23.352;2023-09-19T08:59:15;95192.91;;;22.67;49.91
41062;BME280;26812;42.662;23.352;2023-09-19T09:01:42;95189.00;;;22.75;49.42
41062;BME280;26812;42.662;23.352;2023-09-19T09:04:09;95200.28;;;22.48;49.41
41062;BME280;26812;42.662;23.352;2023-09-19T09:06:38;95184.22;;;22.54;49.42
41062;BME280;26812;42.662;23.352;2023-09-19T09:09:04;95180.31;;;22.58;49.17
41062;BME280;26812;42.662;23.352;2023-09-19T09:11:32;95175.81;;;22.11;50.49
41062;BME280;26812;42.662;23.352;2023-09-19T09:13:58;95181.78;;;21.73;51.64
41062;BME280;26812;42.662;23.352;2023-09-19T09:16:24;95185.91;;;22.04;51.38
41062;BME280;26812;42.662;23.352;2023-09-19T09:18:51;95166.44;;;22.19;51.10
41062;BME280;26812;42.662;23.352;2023-09-19T09:21:20;95172.91;;;22.66;49.69
41062;BME280;26812;42.662;23.352;2023-09-19T09:23:48;95164.72;;;22.84;48.76
41062;BME280;26812;42.662;23.352;2023-09-19T09:26:13;95152.16;;;22.86;48.47
41062;BME280;26812;42.662;23.352;2023-09-19T09:28:46;95151.03;;;22.98;48.20
41062;BME280;26812;42.662;23.352;2023-09-19T09:31:23;95166.38;;;23.31;48.04
41062;BME280;26812;42.662;23.352;2023-09-19T09:33:54;95150.66;;;23.39;47.59
41062;BME280;26812;42.662;23.352;2023-09-19T09:36:36;95162.06;;;23.66;46.73
41062;BME280;26812;42.662;23.352;2023-09-19T09:39:03;95164.03;;;23.65;46.34
41062;BME280;26812;42.662;23.352;2023-09-19T09:41:41;95155.75;;;23.72;46.50
41062;BME280;26812;42.662;23.352;2023-09-19T09:44:26;95145.91;;;23.82;46.24
41062;BME280;26812;42.662;23.352;2023-09-19T09:46:57;95141.13;;;24.07;45.90
41062;BME280;26812;42.662;23.352;2023-09-19T09:49:47;95144.31;;;23.95;46.19
41062;BME280;26812;42.662;23.352;2023-09-19T09:52:19;95137.97;;;24.12;45.99
41062;BME280;26812;42.662;23.352;2023-09-19T09:54:59;95144.94;;;24.53;45.85
41062;BME280;26812;42.662;23.352;2023-09-19T09:57:30;95131.88;;;24.67;45.14
41062;BME280;26812;42.662;23.352;2023-09-19T09:59:59;95131.13;;;24.63;44.66
41062;BME280;26812;42.662;23.352;2023-09-19T10:02:41;95136.81;;;24.10;45.16
41062;BME280;26812;42.662;23.352;2023-09-19T10:05:24;95136.88;;;23.89;45.71
41062;BME280;26812;42.662;23.352;2023-09-19T10:07:53;95122.34;;;23.74;46.36
41062;BME280;26812;42.662;23.352;2023-09-19T10:10:40;95136.88;;;23.89;46.33
41062;BME280;26812;42.662;23.352;2023-09-19T10:13:10;95129.38;;;24.00;46.07
41062;BME280;26812;42.662;23.352;2023-09-19T10:15:43;95130.91;;;24.08;45.62
41062;BME280;26812;42.662;23.352;2023-09-19T10:18:14;95125.03;;;24.06;45.49
41062;BME280;26812;42.662;23.352;2023-09-19T10:20:47;95124.28;;;23.95;46.20
41062;BME280;26812;42.662;23.352;2023-09-19T10:23:14;95116.38;;;24.04;45.89
41062;BME280;26812;42.662;23.352;2023-09-19T10:25:41;95108.94;;;23.87;45.90
41062;BME280;26812;42.662;23.352;2023-09-19T10:28:08;95110.16;;;23.89;45.71
41062;BME280;26812;42.662;23.352;2023-09-19T10:30:41;95108.59;;;23.74;45.50
41062;BME280;26812;42.662;23.352;2023-09-19T10:33:15;95105.00;;;23.98;45.67
41062;BME280;26812;42.662;23.352;2023-09-19T10:35:45;95120.31;;;24.06;45.46
41062;BME280;26812;42.662;23.352;2023-09-19T10:38:13;95110.03;;;24.32;45.23
41062;BME280;26812;42.662;23.352;2023-09-19T10:40:40;95104.81;;;24.52;44.39
41062;BME280;26812;42.662;23.352;2023-09-19T10:43:15;95104.91;;;24.23;45.23
41062;BME280;26812;42.662;23.352;2023-09-19T10:45:45;95125.34;;;24.36;45.51
41062;BME280;26812;42.662;23.352;2023-09-19T10:48:12;95109.50;;;24.58;44.25
41062;BME280;26812;42.662;23.352;2023-09-19T10:50:51;95103.25;;;24.51;44.30
41062;BME280;26812;42.662;23.352;2023-09-19T10:53:18;95102.66;;;23.97;45.33
41062;BME280;26812;42.662;23.352;2023-09-19T10:55:54;95105.50;;;23.61;46.90
41062;BME280;26812;42.662;23.352;2023-09-19T10:58:27;95095.97;;;23.94;46.10
41062;BME280;26812;42.662;23.352;2023-09-19T11:00:58;95099.81;;;24.25;45.44
41062;BME280;26812;42.662;23.352;2023-09-19T11:03:27;95101.00;;;24.21;45.16
41062;BME280;26812;42.662;23.352;2023-09-19T11:06:04;95069.72;;;23.72;45.48
41062;BME280;26812;42.662;23.352;2023-09-19T11:14:29;95085.66;;;24.16;46.42
41062;BME280;26812;42.662;23.352;2023-09-19T11:33:17;95074.06;;;24.64;44.50
41062;BME280;26812;42.662;23.352;2023-09-19T11:36:10;95069.94;;;24.90;44.06
41062;BME280;26812;42.662;23.352;2023-09-19T11:46:29;95049.88;;;24.89;43.85
41062;BME280;26812;42.662;23.352;2023-09-19T11:49:06;95026.56;;;24.97;43.62
41062;BME280;26812;42.662;23.352;2023-09-19T11:51:41;95027.88;;;25.30;43.00
41062;BME280;26812;42.662;23.352;2023-09-19T11:54:11;95028.38;;;25.59;42.52
41062;BME280;26812;42.662;23.352;2023-09-19T11:56:51;95016.09;;;25.26;42.69
41062;BME280;26812;42.662;23.352;2023-09-19T11:59:24;95025.06;;;25.37;42.60
41062;BME280;26812;42.662;23.352;2023-09-19T12:01:54;95036.63;;;25.63;42.61
41062;BME280;26812;42.662;23.352;2023-09-19T12:04:40;95021.97;;;25.73;42.72
41062;BME280;26812;42.662;23.352;2023-09-19T12:07:10;95022.41;;;26.02;42.50
41062;BME280;26812;42.662;23.352;2023-09-19T12:09:51;95006.44;;;26.17;41.54
41062;BME280;26812;42.662;23.352;2023-09-19T12:12:26;95021.25;;;26.34;40.90
41062;BME280;26812;42.662;23.352;2023-09-19T12:14:59;95016.03;;;26.39;40.53
41062;BME280;26812;42.662;23.352;2023-09-19T12:17:37;94996.91;;;26.52;40.03
41062;BME280;26812;42.662;23.352;2023-09-19T12:20:04;94990.88;;;26.84;40.34
41062;BME280;26812;42.662;23.352;2023-09-19T12:22:41;94988.59;;;26.79;39.30
41062;BME280;26812;42.662;23.352;2023-09-19T12:25:09;94997.41;;;26.93;39.66
41062;BME280;26812;42.662;23.352;2023-09-19T12:27:49;95004.53;;;27.41;38.84
41062;BME280;26812;42.662;23.352;2023-09-19T12:30:18;94998.66;;;27.16;38.63
41062;BME280;26812;42.662;23.352;2023-09-19T12:32:44;94992.97;;;27.46;38.16
41062;BME280;26812;42.662;23.352;2023-09-19T12:35:27;94989.16;;;27.40;38.48
41062;BME280;26812;42.662;23.352;2023-09-19T12:37:54;94983.56;;;27.20;38.63
41062;BME280;26812;42.662;23.352;2023-09-19T12:40:21;94985.53;;;27.43;38.34
41062;BME280;26812;42.662;23.352;2023-09-19T12:42:54;94980.41;;;27.42;38.07
41062;BME280;26812;42.662;23.352;2023-09-19T12:45:28;94982.16;;;27.75;38.19
41062;BME280;26812;42.662;23.352;2023-09-19T12:48:21;94977.03;;;27.11;39.08
41062;BME280;26812;42.662;23.352;2023-09-19T12:51:10;94978.22;;;27.53;39.13
41062;BME280;26812;42.662;23.352;2023-09-19T12:53:42;94979.84;;;27.50;38.54
41062;BME280;26812;42.662;23.352;2023-09-19T12:56:10;94963.44;;;26.97;39.63
41062;BME280;26812;42.662;23.352;2023-09-19T13:01:15;94979.00;;;27.53;38.70
41062;BME280;26812;42.662;23.352;2023-09-19T13:03:41;94960.31;;;28.01;37.88
41062;BME280;26812;42.662;23.352;2023-09-19T13:06:07;94970.63;;;28.36;38.00
41062;BME280;26812;42.662;23.352;2023-09-19T13:08:36;94957.59;;;28.69;36.12
41062;BME280;26812;42.662;23.352;2023-09-19T13:11:09;94953.34;;;28.49;36.78
41062;BME280;26812;42.662;23.352;2023-09-19T13:13:40;94964.34;;;28.52;36.78
41062;BME280;26812;42.662;23.352;2023-09-19T13:16:06;94951.47;;;28.06;37.42
41062;BME280;26812;42.662;23.352;2023-09-19T13:18:52;94954.53;;;28.11;37.18
41062;BME280;26812;42.662;23.352;2023-09-19T13:21:34;94956.81;;;28.17;36.91
41062;BME280;26812;42.662;23.352;2023-09-19T13:24:21;94954.88;;;28.13;37.42
41062;BME280;26812;42.662;23.352;2023-09-19T13:26:48;94937.06;;;27.35;38.00
41062;BME280;26812;42.662;23.352;2023-09-19T13:29:14;94932.13;;;26.80;39.60
41062;BME280;26812;42.662;23.352;2023-09-19T13:31:48;94936.38;;;26.07;40.69
41062;BME280;26812;42.662;23.352;2023-09-19T13:34:15;94905.72;;;26.25;40.80
41062;BME280;26812;42.662;23.352;2023-09-19T13:36:42;94937.06;;;26.69;40.24
41062;BME280;26812;42.662;23.352;2023-09-19T13:39:08;94935.88;;;26.89;40.07
41062;BME280;26812;42.662;23.352;2023-09-19T13:41:38;94920.13;;;27.33;39.27
41062;BME280;26812;42.662;23.352;2023-09-19T13:44:04;94921.44;;;27.68;38.61
41062;BME280;26812;42.662;23.352;2023-09-19T13:46:30;94924.03;;;27.95;38.06
41062;BME280;26812;42.662;23.352;2023-09-19T13:49:00;94925.88;;;28.02;37.58